sensor_id;sensor_type;location;lat;lon;timestamp;P1;durP1;ratioP1;P2;durP2;ratioP2
12467;SDS011;57850;52.922;6.256;2023-08-30T00:00:24;16.60;;;13.98;;
12467;SDS011;57850;52.922;6.256;2023-08-30T00:02:51;16.75;;;13.23;;
12467;SDS011;57850;52.922;6.256;2023-08-30T00:05:17;16.10;;;14.07;;
12467;SDS011;57850;52.922;6.256;2023-08-30T00:07:44;16.08;;;13.02;;
12467;SDS011;57850;52.922;6.256;2023-08-30T00:10:11;17.77;;;13.27;;
12467;SDS011;57850;52.922;6.256;2023-08-30T00:12:37;15.43;;;12.98;;
12467;SDS011;57850;52.922;6.256;2023-08-30T00:15:06;16.15;;;12.45;;
12467;SDS011;57850;52.922;6.256;2023-08-30T00:17:34;17.05;;;12.57;;
12467;SDS011;57850;52.922;6.256;2023-08-30T00:20:00;16.10;;;12.27;;
12467;SDS011;57850;52.922;6.256;2023-08-30T00:22:28;15.25;;;12.15;;
12467;SDS011;57850;52.922;6.256;2023-08-30T00:24:54;15.05;;;11.55;;
12467;SDS011;57850;52.922;6.256;2023-08-30T00:27:21;13.68;;;11.05;;
12467;SDS011;57850;52.922;6.256;2023-08-30T00:29:47;15.15;;;12.30;;
12467;SDS011;57850;52.922;6.256;2023-08-30T00:32:15;15.48;;;11.95;;
12467;SDS011;57850;52.922;6.256;2023-08-30T00:34:42;14.75;;;12.20;;
12467;SDS011;57850;52.922;6.256;2023-08-30T00:37:09;17.00;;;11.68;;
12467;SDS011;57850;52.922;6.256;2023-08-30T00:39:37;13.80;;;11.13;;
12467;SDS011;57850;52.922;6.256;2023-08-30T00:42:04;15.10;;;11.57;;
12467;SDS011;57850;52.922;6.256;2023-08-30T00:44:32;15.80;;;11.65;;
12467;SDS011;57850;52.922;6.256;2023-08-30T00:46:59;16.25;;;12.30;;
12467;SDS011;57850;52.922;6.256;2023-08-30T00:49:27;15.43;;;11.48;;
12467;SDS011;57850;52.922;6.256;2023-08-30T00:51:54;16.10;;;11.95;;
12467;SDS011;57850;52.922;6.256;2023-08-30T00:54:22;17.98;;;11.77;;
12467;SDS011;57850;52.922;6.256;2023-08-30T00:56:49;16.40;;;12.38;;
12467;SDS011;57850;52.922;6.256;2023-08-30T00:59:16;15.15;;;10.73;;
12467;SDS011;57850;52.922;6.256;2023-08-30T01:01:43;14.48;;;11.27;;
12467;SDS011;57850;52.922;6.256;2023-08-30T01:04:11;16.33;;;12.13;;
12467;SDS011;57850;52.922;6.256;2023-08-30T01:06:38;14.20;;;11.00;;
12467;SDS011;57850;52.922;6.256;2023-08-30T01:09:05;13.93;;;11.68;;
12467;SDS011;57850;52.922;6.256;2023-08-30T01:11:35;12.95;;;11.05;;
12467;SDS011;57850;52.922;6.256;2023-08-30T01:14:13;15.75;;;10.73;;
12467;SDS011;57850;52.922;6.256;2023-08-30T01:16:44;12.98;;;10.63;;
12467;SDS011;57850;52.922;6.256;2023-08-30T01:19:17;13.68;;;10.27;;
12467;SDS011;57850;52.922;6.256;2023-08-30T01:22:01;13.50;;;10.50;;
12467;SDS011;57850;52.922;6.256;2023-08-30T01:24:37;12.27;;;10.25;;
12467;SDS011;57850;52.922;6.256;2023-08-30T01:27:11;12.73;;;10.45;;
12467;SDS011;57850;52.922;6.256;2023-08-30T01:29:40;14.73;;;11.50;;
12467;SDS011;57850;52.922;6.256;2023-08-30T01:32:10;16.50;;;10.95;;
12467;SDS011;57850;52.922;6.256;2023-08-30T01:34:37;13.13;;;10.75;;
12467;SDS011;57850;52.922;6.256;2023-08-30T01:37:05;15.43;;;10.98;;
12467;SDS011;57850;52.922;6.256;2023-08-30T01:39:33;13.63;;;10.82;;
12467;SDS011;57850;52.922;6.256;2023-08-30T01:42:01;13.90;;;10.45;;
12467;SDS011;57850;52.922;6.256;2023-08-30T01:44:30;14.48;;;11.02;;
12467;SDS011;57850;52.922;6.256;2023-08-30T01:46:58;14.35;;;10.93;;
12467;SDS011;57850;52.922;6.256;2023-08-30T01:49:26;12.73;;;9.82;;
12467;SDS011;57850;52.922;6.256;2023-08-30T01:51:57;12.50;;;10.52;;
12467;SDS011;57850;52.922;6.256;2023-08-30T01:54:25;16.48;;;10.50;;
12467;SDS011;57850;52.922;6.256;2023-08-30T01:56:53;13.32;;;10.05;;
12467;SDS011;57850;52.922;6.256;2023-08-30T01:59:19;10.90;;;9.50;;
12467;SDS011;57850;52.922;6.256;2023-08-30T02:01:47;15.07;;;10.18;;
12467;SDS011;57850;52.922;6.256;2023-08-30T02:04:14;14.15;;;10.52;;
12467;SDS011;57850;52.922;6.256;2023-08-30T02:06:43;11.63;;;9.73;;
12467;SDS011;57850;52.922;6.256;2023-08-30T02:09:17;16.15;;;10.18;;
12467;SDS011;57850;52.922;6.256;2023-08-30T02:11:47;11.95;;;9.52;;
12467;SDS011;57850;52.922;6.256;2023-08-30T02:14:17;12.40;;;9.27;;
12467;SDS011;57850;52.922;6.256;2023-08-30T02:16:44;12.68;;;9.45;;
12467;SDS011;57850;52.922;6.256;2023-08-30T02:19:13;11.73;;;9.45;;
12467;SDS011;57850;52.922;6.256;2023-08-30T02:21:42;10.13;;;9.00;;
12467;SDS011;57850;52.922;6.256;2023-08-30T02:24:09;11.13;;;9.32;;
12467;SDS011;57850;52.922;6.256;2023-08-30T02:26:35;11.13;;;9.15;;
12467;SDS011;57850;52.922;6.256;2023-08-30T02:29:02;12.38;;;9.50;;
12467;SDS011;57850;52.922;6.256;2023-08-30T02:31:29;14.20;;;9.95;;
12467;SDS011;57850;52.922;6.256;2023-08-30T02:33:56;12.23;;;8.65;;
12467;SDS011;57850;52.922;6.256;2023-08-30T02:36:23;12.60;;;9.20;;
12467;SDS011;57850;52.922;6.256;2023-08-30T02:38:50;14.07;;;9.38;;
12467;SDS011;57850;52.922;6.256;2023-08-30T02:41:17;15.48;;;9.15;;
12467;SDS011;57850;52.922;6.256;2023-08-30T02:43:43;13.88;;;8.82;;
12467;SDS011;57850;52.922;6.256;2023-08-30T02:46:10;13.73;;;9.40;;
12467;SDS011;57850;52.922;6.256;2023-08-30T02:48:37;12.20;;;9.80;;
12467;SDS011;57850;52.922;6.256;2023-08-30T02:51:03;12.68;;;9.80;;
12467;SDS011;57850;52.922;6.256;2023-08-30T02:53:31;12.68;;;9.73;;
12467;SDS011;57850;52.922;6.256;2023-08-30T02:55:58;13.68;;;10.20;;
12467;SDS011;57850;52.922;6.256;2023-08-30T02:58:24;13.73;;;10.48;;
12467;SDS011;57850;52.922;6.256;2023-08-30T03:00:51;14.30;;;10.80;;
12467;SDS011;57850;52.922;6.256;2023-08-30T03:03:18;14.52;;;9.68;;
12467;SDS011;57850;52.922;6.256;2023-08-30T03:05:45;13.63;;;10.35;;
12467;SDS011;57850;52.922;6.256;2023-08-30T03:08:11;13.85;;;9.90;;
12467;SDS011;57850;52.922;6.256;2023-08-30T03:10:39;14.20;;;9.73;;
12467;SDS011;57850;52.922;6.256;2023-08-30T03:13:06;15.80;;;9.55;;
12467;SDS011;57850;52.922;6.256;2023-08-30T03:15:32;15.68;;;10.82;;
12467;SDS011;57850;52.922;6.256;2023-08-30T03:17:59;14.02;;;9.80;;
12467;SDS011;57850;52.922;6.256;2023-08-30T03:20:26;12.73;;;9.30;;
12467;SDS011;57850;52.922;6.256;2023-08-30T03:22:55;13.98;;;10.30;;
12467;SDS011;57850;52.922;6.256;2023-08-30T03:25:22;13.02;;;10.10;;
12467;SDS011;57850;52.922;6.256;2023-08-30T03:27:50;13.68;;;11.25;;
12467;SDS011;57850;52.922;6.256;2023-08-30T03:30:18;14.02;;;10.45;;
12467;SDS011;57850;52.922;6.256;2023-08-30T03:32:44;13.30;;;9.82;;
12467;SDS011;57850;52.922;6.256;2023-08-30T03:35:11;14.30;;;10.60;;
12467;SDS011;57850;52.922;6.256;2023-08-30T03:37:40;13.77;;;10.57;;
12467;SDS011;57850;52.922;6.256;2023-08-30T03:40:06;12.95;;;10.52;;
12467;SDS011;57850;52.922;6.256;2023-08-30T03:42:34;14.88;;;10.45;;
12467;SDS011;57850;52.922;6.256;2023-08-30T03:45:02;12.70;;;10.40;;
12467;SDS011;57850;52.922;6.256;2023-08-30T03:47:30;14.10;;;10.45;;
12467;SDS011;57850;52.922;6.256;2023-08-30T03:49:57;11.60;;;9.93;;
12467;SDS011;57850;52.922;6.256;2023-08-30T03:52:23;11.60;;;9.50;;
12467;SDS011;57850;52.922;6.256;2023-08-30T03:54:50;14.30;;;10.02;;
12467;SDS011;57850;52.922;6.256;2023-08-30T03:57:16;14.32;;;10.15;;
12467;SDS011;57850;52.922;6.256;2023-08-30T03:59:44;12.88;;;9.85;;
12467;SDS011;57850;52.922;6.256;2023-08-30T04:02:12;13.15;;;9.80;;
12467;SDS011;57850;52.922;6.256;2023-08-30T04:04:38;15.23;;;9.18;;
12467;SDS011;57850;52.922;6.256;2023-08-30T04:07:05;12.65;;;9.77;;
12467;SDS011;57850;52.922;6.256;2023-08-30T04:09:31;12.10;;;9.73;;
12467;SDS011;57850;52.922;6.256;2023-08-30T04:11:58;14.10;;;9.75;;
12467;SDS011;57850;52.922;6.256;2023-08-30T04:14:25;12.48;;;9.60;;
12467;SDS011;57850;52.922;6.256;2023-08-30T04:16:52;12.65;;;9.75;;
12467;SDS011;57850;52.922;6.256;2023-08-30T04:19:20;10.95;;;8.98;;
12467;SDS011;57850;52.922;6.256;2023-08-30T04:21:47;11.32;;;8.68;;
12467;SDS011;57850;52.922;6.256;2023-08-30T04:24:14;12.48;;;9.68;;
12467;SDS011;57850;52.922;6.256;2023-08-30T04:26:40;13.07;;;9.80;;
12467;SDS011;57850;52.922;6.256;2023-08-30T04:29:07;13.68;;;9.45;;
12467;SDS011;57850;52.922;6.256;2023-08-30T04:31:35;12.60;;;8.80;;
12467;SDS011;57850;52.922;6.256;2023-08-30T04:34:01;12.45;;;9.73;;
12467;SDS011;57850;52.922;6.256;2023-08-30T04:36:29;13.98;;;10.07;;
12467;SDS011;57850;52.922;6.256;2023-08-30T04:38:56;13.30;;;8.85;;
12467;SDS011;57850;52.922;6.256;2023-08-30T04:41:22;11.98;;;9.18;;
12467;SDS011;57850;52.922;6.256;2023-08-30T04:43:49;11.38;;;9.38;;
12467;SDS011;57850;52.922;6.256;2023-08-30T04:46:15;12.43;;;9.38;;
12467;SDS011;57850;52.922;6.256;2023-08-30T04:48:42;12.80;;;10.13;;
12467;SDS011;57850;52.922;6.256;2023-08-30T04:51:09;13.02;;;9.48;;
12467;SDS011;57850;52.922;6.256;2023-08-30T04:53:37;14.30;;;10.10;;
12467;SDS011;57850;52.922;6.256;2023-08-30T04:56:10;12.48;;;9.68;;
12467;SDS011;57850;52.922;6.256;2023-08-30T04:58:37;12.10;;;9.35;;
12467;SDS011;57850;52.922;6.256;2023-08-30T05:01:04;14.55;;;10.25;;
12467;SDS011;57850;52.922;6.256;2023-08-30T05:03:32;13.45;;;9.88;;
12467;SDS011;57850;52.922;6.256;2023-08-30T05:05:58;13.25;;;10.23;;
12467;SDS011;57850;52.922;6.256;2023-08-30T05:08:25;16.00;;;9.40;;
12467;SDS011;57850;52.922;6.256;2023-08-30T05:10:54;13.05;;;9.93;;
12467;SDS011;57850;52.922;6.256;2023-08-30T05:13:21;13.82;;;9.13;;
12467;SDS011;57850;52.922;6.256;2023-08-30T05:15:47;14.70;;;9.88;;
12467;SDS011;57850;52.922;6.256;2023-08-30T05:18:14;12.88;;;9.63;;
12467;SDS011;57850;52.922;6.256;2023-08-30T05:20:40;11.95;;;9.35;;
12467;SDS011;57850;52.922;6.256;2023-08-30T05:23:07;13.40;;;10.38;;
12467;SDS011;57850;52.922;6.256;2023-08-30T05:25:34;13.57;;;10.13;;
12467;SDS011;57850;52.922;6.256;2023-08-30T05:28:02;12.77;;;9.38;;
12467;SDS011;57850;52.922;6.256;2023-08-30T05:30:29;13.23;;;8.73;;
12467;SDS011;57850;52.922;6.256;2023-08-30T05:32:56;14.50;;;10.27;;
12467;SDS011;57850;52.922;6.256;2023-08-30T05:35:22;13.70;;;9.57;;
12467;SDS011;57850;52.922;6.256;2023-08-30T05:37:49;13.25;;;9.50;;
12467;SDS011;57850;52.922;6.256;2023-08-30T05:40:15;12.82;;;9.60;;
12467;SDS011;57850;52.922;6.256;2023-08-30T05:42:43;16.83;;;10.27;;
12467;SDS011;57850;52.922;6.256;2023-08-30T05:45:12;15.27;;;10.27;;
12467;SDS011;57850;52.922;6.256;2023-08-30T05:47:38;13.00;;;10.15;;
12467;SDS011;57850;52.922;6.256;2023-08-30T05:50:05;14.05;;;9.80;;
12467;SDS011;57850;52.922;6.256;2023-08-30T05:52:32;14.40;;;10.35;;
12467;SDS011;57850;52.922;6.256;2023-08-30T05:54:59;15.38;;;9.55;;
12467;SDS011;57850;52.922;6.256;2023-08-30T05:57:25;16.73;;;10.07;;
12467;SDS011;57850;52.922;6.256;2023-08-30T05:59:54;14.10;;;10.15;;
12467;SDS011;57850;52.922;6.256;2023-08-30T06:02:22;15.25;;;9.70;;
12467;SDS011;57850;52.922;6.256;2023-08-30T06:04:48;13.88;;;9.55;;
12467;SDS011;57850;52.922;6.256;2023-08-30T06:07:15;12.07;;;8.77;;
12467;SDS011;57850;52.922;6.256;2023-08-30T06:09:42;14.95;;;8.95;;
12467;SDS011;57850;52.922;6.256;2023-08-30T06:12:08;19.02;;;9.77;;
12467;SDS011;57850;52.922;6.256;2023-08-30T06:14:35;14.13;;;9.85;;
12467;SDS011;57850;52.922;6.256;2023-08-30T06:17:01;14.23;;;9.65;;
12467;SDS011;57850;52.922;6.256;2023-08-30T06:19:30;15.43;;;9.13;;
12467;SDS011;57850;52.922;6.256;2023-08-30T06:21:56;11.95;;;9.02;;
12467;SDS011;57850;52.922;6.256;2023-08-30T06:24:23;17.05;;;9.75;;
12467;SDS011;57850;52.922;6.256;2023-08-30T06:26:50;13.18;;;9.48;;
12467;SDS011;57850;52.922;6.256;2023-08-30T06:29:16;14.35;;;9.05;;
12467;SDS011;57850;52.922;6.256;2023-08-30T06:31:43;11.80;;;8.68;;
12467;SDS011;57850;52.922;6.256;2023-08-30T06:34:10;13.63;;;9.02;;
12467;SDS011;57850;52.922;6.256;2023-08-30T06:36:38;15.60;;;9.38;;
12467;SDS011;57850;52.922;6.256;2023-08-30T06:39:05;11.43;;;8.65;;
12467;SDS011;57850;52.922;6.256;2023-08-30T06:41:31;11.20;;;8.27;;
12467;SDS011;57850;52.922;6.256;2023-08-30T06:43:58;11.88;;;8.25;;
12467;SDS011;57850;52.922;6.256;2023-08-30T06:46:24;15.00;;;9.15;;
12467;SDS011;57850;52.922;6.256;2023-08-30T06:48:51;13.00;;;8.63;;
12467;SDS011;57850;52.922;6.256;2023-08-30T06:51:18;13.73;;;8.63;;
12467;SDS011;57850;52.922;6.256;2023-08-30T06:53:45;11.40;;;8.38;;
12467;SDS011;57850;52.922;6.256;2023-08-30T06:56:13;16.13;;;9.40;;
12467;SDS011;57850;52.922;6.256;2023-08-30T06:58:39;14.75;;;9.27;;
12467;SDS011;57850;52.922;6.256;2023-08-30T07:01:06;12.35;;;8.38;;
12467;SDS011;57850;52.922;6.256;2023-08-30T07:03:32;13.18;;;8.07;;
12467;SDS011;57850;52.922;6.256;2023-08-30T07:05:59;10.80;;;7.63;;
12467;SDS011;57850;52.922;6.256;2023-08-30T07:08:25;14.40;;;8.93;;
12467;SDS011;57850;52.922;6.256;2023-08-30T07:10:54;12.10;;;8.57;;
12467;SDS011;57850;52.922;6.256;2023-08-30T07:13:20;12.85;;;8.00;;
12467;SDS011;57850;52.922;6.256;2023-08-30T07:15:47;12.18;;;7.80;;
12467;SDS011;57850;52.922;6.256;2023-08-30T07:18:14;12.65;;;8.35;;
12467;SDS011;57850;52.922;6.256;2023-08-30T07:20:40;13.52;;;8.85;;
12467;SDS011;57850;52.922;6.256;2023-08-30T07:23:07;12.88;;;7.95;;
12467;SDS011;57850;52.922;6.256;2023-08-30T07:25:35;11.43;;;8.07;;
12467;SDS011;57850;52.922;6.256;2023-08-30T07:28:04;10.18;;;7.57;;
12467;SDS011;57850;52.922;6.256;2023-08-30T07:30:31;12.88;;;8.43;;
12467;SDS011;57850;52.922;6.256;2023-08-30T07:33:00;11.10;;;7.30;;
12467;SDS011;57850;52.922;6.256;2023-08-30T07:35:26;10.52;;;8.20;;
12467;SDS011;57850;52.922;6.256;2023-08-30T07:37:53;12.07;;;8.05;;
12467;SDS011;57850;52.922;6.256;2023-08-30T07:40:19;10.95;;;7.70;;
12467;SDS011;57850;52.922;6.256;2023-08-30T07:42:49;11.88;;;7.95;;
12467;SDS011;57850;52.922;6.256;2023-08-30T07:45:17;11.13;;;8.13;;
12467;SDS011;57850;52.922;6.256;2023-08-30T07:47:44;12.65;;;7.55;;
12467;SDS011;57850;52.922;6.256;2023-08-30T07:50:10;9.93;;;7.63;;
12467;SDS011;57850;52.922;6.256;2023-08-30T07:52:37;12.02;;;7.10;;
12467;SDS011;57850;52.922;6.256;2023-08-30T07:55:03;11.73;;;8.02;;
12467;SDS011;57850;52.922;6.256;2023-08-30T07:57:30;9.75;;;6.90;;
12467;SDS011;57850;52.922;6.256;2023-08-30T07:59:57;10.38;;;7.32;;
12467;SDS011;57850;52.922;6.256;2023-08-30T08:02:25;9.82;;;7.70;;
12467;SDS011;57850;52.922;6.256;2023-08-30T08:04:51;8.93;;;6.75;;
12467;SDS011;57850;52.922;6.256;2023-08-30T08:07:18;10.02;;;6.30;;
12467;SDS011;57850;52.922;6.256;2023-08-30T08:09:44;8.88;;;6.95;;
12467;SDS011;57850;52.922;6.256;2023-08-30T08:12:11;9.60;;;6.82;;
12467;SDS011;57850;52.922;6.256;2023-08-30T08:14:38;9.98;;;7.55;;
12467;SDS011;57850;52.922;6.256;2023-08-30T08:17:04;9.35;;;7.65;;
12467;SDS011;57850;52.922;6.256;2023-08-30T08:19:32;10.88;;;7.50;;
12467;SDS011;57850;52.922;6.256;2023-08-30T08:22:04;11.48;;;7.43;;
12467;SDS011;57850;52.922;6.256;2023-08-30T08:24:30;10.85;;;7.10;;
12467;SDS011;57850;52.922;6.256;2023-08-30T08:26:57;19.58;;;7.40;;
12467;SDS011;57850;52.922;6.256;2023-08-30T08:29:23;13.32;;;8.15;;
12467;SDS011;57850;52.922;6.256;2023-08-30T08:31:50;12.32;;;7.43;;
12467;SDS011;57850;52.922;6.256;2023-08-30T08:34:17;10.48;;;7.40;;
12467;SDS011;57850;52.922;6.256;2023-08-30T08:36:45;14.25;;;8.35;;
12467;SDS011;57850;52.922;6.256;2023-08-30T08:39:12;10.05;;;7.68;;
12467;SDS011;57850;52.922;6.256;2023-08-30T08:41:40;10.00;;;7.38;;
12467;SDS011;57850;52.922;6.256;2023-08-30T08:44:08;10.57;;;7.25;;
12467;SDS011;57850;52.922;6.256;2023-08-30T08:46:36;12.95;;;7.13;;
12467;SDS011;57850;52.922;6.256;2023-08-30T08:49:05;11.13;;;7.05;;
12467;SDS011;57850;52.922;6.256;2023-08-30T08:51:35;9.45;;;6.60;;
12467;SDS011;57850;52.922;6.256;2023-08-30T08:54:04;10.43;;;6.50;;
12467;SDS011;57850;52.922;6.256;2023-08-30T08:56:31;9.18;;;6.50;;
12467;SDS011;57850;52.922;6.256;2023-08-30T08:58:59;12.30;;;7.10;;
12467;SDS011;57850;52.922;6.256;2023-08-30T09:01:26;11.20;;;7.35;;
12467;SDS011;57850;52.922;6.256;2023-08-30T09:03:53;11.07;;;6.93;;
12467;SDS011;57850;52.922;6.256;2023-08-30T09:06:20;9.80;;;7.25;;
12467;SDS011;57850;52.922;6.256;2023-08-30T09:08:47;9.07;;;6.55;;
12467;SDS011;57850;52.922;6.256;2023-08-30T09:11:15;9.20;;;7.00;;
12467;SDS011;57850;52.922;6.256;2023-08-30T09:13:42;10.80;;;7.40;;
12467;SDS011;57850;52.922;6.256;2023-08-30T09:16:12;8.57;;;5.97;;
12467;SDS011;57850;52.922;6.256;2023-08-30T09:18:40;11.48;;;6.18;;
12467;SDS011;57850;52.922;6.256;2023-08-30T09:21:07;8.10;;;5.80;;
12467;SDS011;57850;52.922;6.256;2023-08-30T09:23:33;9.50;;;6.22;;
12467;SDS011;57850;52.922;6.256;2023-08-30T09:26:00;9.02;;;6.68;;
12467;SDS011;57850;52.922;6.256;2023-08-30T09:28:29;8.75;;;5.93;;
12467;SDS011;57850;52.922;6.256;2023-08-30T09:30:57;10.10;;;6.05;;
12467;SDS011;57850;52.922;6.256;2023-08-30T09:33:29;8.27;;;6.00;;
12467;SDS011;57850;52.922;6.256;2023-08-30T09:35:56;8.63;;;6.22;;
12467;SDS011;57850;52.922;6.256;2023-08-30T09:38:23;7.32;;;6.25;;
12467;SDS011;57850;52.922;6.256;2023-08-30T09:40:50;8.48;;;6.28;;
12467;SDS011;57850;52.922;6.256;2023-08-30T09:43:18;8.77;;;6.90;;
12467;SDS011;57850;52.922;6.256;2023-08-30T09:45:48;9.95;;;6.88;;
12467;SDS011;57850;52.922;6.256;2023-08-30T09:48:15;7.15;;;6.10;;
12467;SDS011;57850;52.922;6.256;2023-08-30T09:50:46;9.07;;;6.90;;
12467;SDS011;57850;52.922;6.256;2023-08-30T09:53:19;8.55;;;6.60;;
12467;SDS011;57850;52.922;6.256;2023-08-30T09:55:47;10.30;;;6.68;;
12467;SDS011;57850;52.922;6.256;2023-08-30T09:58:15;7.15;;;6.07;;
12467;SDS011;57850;52.922;6.256;2023-08-30T10:00:42;8.70;;;5.88;;
12467;SDS011;57850;52.922;6.256;2023-08-30T10:03:10;5.90;;;5.03;;
12467;SDS011;57850;52.922;6.256;2023-08-30T10:05:38;10.02;;;5.50;;
12467;SDS011;57850;52.922;6.256;2023-08-30T10:08:07;6.25;;;5.22;;
12467;SDS011;57850;52.922;6.256;2023-08-30T10:10:34;10.05;;;6.70;;
12467;SDS011;57850;52.922;6.256;2023-08-30T10:13:01;9.13;;;5.80;;
12467;SDS011;57850;52.922;6.256;2023-08-30T10:15:28;8.43;;;6.20;;
12467;SDS011;57850;52.922;6.256;2023-08-30T10:18:02;7.05;;;5.15;;
12467;SDS011;57850;52.922;6.256;2023-08-30T10:20:33;8.68;;;6.22;;
12467;SDS011;57850;52.922;6.256;2023-08-30T10:23:00;6.93;;;5.43;;
12467;SDS011;57850;52.922;6.256;2023-08-30T10:25:29;8.88;;;6.72;;
12467;SDS011;57850;52.922;6.256;2023-08-30T10:27:58;8.32;;;5.82;;
12467;SDS011;57850;52.922;6.256;2023-08-30T10:30:25;8.07;;;5.00;;
12467;SDS011;57850;52.922;6.256;2023-08-30T10:32:52;7.35;;;4.95;;
12467;SDS011;57850;52.922;6.256;2023-08-30T10:35:19;6.97;;;5.38;;
12467;SDS011;57850;52.922;6.256;2023-08-30T10:37:54;4.90;;;3.97;;
12467;SDS011;57850;52.922;6.256;2023-08-30T10:40:24;5.47;;;4.43;;
12467;SDS011;57850;52.922;6.256;2023-08-30T10:43:01;5.85;;;4.57;;
12467;SDS011;57850;52.922;6.256;2023-08-30T10:45:28;5.50;;;4.55;;
12467;SDS011;57850;52.922;6.256;2023-08-30T10:47:56;7.32;;;4.88;;
12467;SDS011;57850;52.922;6.256;2023-08-30T10:50:29;5.18;;;4.50;;
12467;SDS011;57850;52.922;6.256;2023-08-30T10:52:59;6.53;;;4.90;;
12467;SDS011;57850;52.922;6.256;2023-08-30T10:55:25;7.38;;;5.68;;
12467;SDS011;57850;52.922;6.256;2023-08-30T10:58:02;7.63;;;5.65;;
12467;SDS011;57850;52.922;6.256;2023-08-30T11:00:30;7.82;;;5.55;;
12467;SDS011;57850;52.922;6.256;2023-08-30T11:02:58;6.28;;;5.20;;
12467;SDS011;57850;52.922;6.256;2023-08-30T11:05:25;6.43;;;5.22;;
12467;SDS011;57850;52.922;6.256;2023-08-30T11:07:53;6.15;;;5.13;;
12467;SDS011;57850;52.922;6.256;2023-08-30T11:10:21;6.18;;;5.38;;
12467;SDS011;57850;52.922;6.256;2023-08-30T11:12:48;7.13;;;6.03;;
12467;SDS011;57850;52.922;6.256;2023-08-30T11:15:15;5.93;;;4.80;;
12467;SDS011;57850;52.922;6.256;2023-08-30T11:17:42;7.75;;;5.85;;
12467;SDS011;57850;52.922;6.256;2023-08-30T11:20:09;6.60;;;5.10;;
12467;SDS011;57850;52.922;6.256;2023-08-30T11:22:37;8.40;;;6.38;;
12467;SDS011;57850;52.922;6.256;2023-08-30T11:25:04;8.98;;;5.75;;
12467;SDS011;57850;52.922;6.256;2023-08-30T11:27:32;7.85;;;6.35;;
12467;SDS011;57850;52.922;6.256;2023-08-30T11:29:59;7.30;;;5.72;;
12467;SDS011;57850;52.922;6.256;2023-08-30T11:32:27;10.57;;;6.30;;
12467;SDS011;57850;52.922;6.256;2023-08-30T11:34:57;8.43;;;5.97;;
12467;SDS011;57850;52.922;6.256;2023-08-30T11:37:23;7.82;;;5.85;;
12467;SDS011;57850;52.922;6.256;2023-08-30T11:39:52;9.18;;;6.32;;
12467;SDS011;57850;52.922;6.256;2023-08-30T11:42:19;7.93;;;5.95;;
12467;SDS011;57850;52.922;6.256;2023-08-30T11:44:47;8.20;;;6.50;;
12467;SDS011;57850;52.922;6.256;2023-08-30T11:47:17;8.52;;;6.25;;
12467;SDS011;57850;52.922;6.256;2023-08-30T11:49:44;9.13;;;6.85;;
12467;SDS011;57850;52.922;6.256;2023-08-30T11:52:11;10.00;;;6.95;;
12467;SDS011;57850;52.922;6.256;2023-08-30T11:54:38;8.25;;;6.40;;
12467;SDS011;57850;52.922;6.256;2023-08-30T11:57:05;7.57;;;6.63;;
12467;SDS011;57850;52.922;6.256;2023-08-30T11:59:34;8.88;;;6.90;;
12467;SDS011;57850;52.922;6.256;2023-08-30T12:02:02;8.30;;;6.95;;
12467;SDS011;57850;52.922;6.256;2023-08-30T12:04:29;9.38;;;6.78;;
12467;SDS011;57850;52.922;6.256;2023-08-30T12:06:56;10.13;;;6.45;;
12467;SDS011;57850;52.922;6.256;2023-08-30T12:09:29;8.65;;;7.18;;
12467;SDS011;57850;52.922;6.256;2023-08-30T12:12:04;9.45;;;7.25;;
12467;SDS011;57850;52.922;6.256;2023-08-30T12:14:32;12.00;;;7.40;;
12467;SDS011;57850;52.922;6.256;2023-08-30T12:16:59;9.13;;;7.22;;
12467;SDS011;57850;52.922;6.256;2023-08-30T12:19:29;9.80;;;7.30;;
12467;SDS011;57850;52.922;6.256;2023-08-30T12:21:55;10.80;;;7.65;;
12467;SDS011;57850;52.922;6.256;2023-08-30T12:24:22;9.43;;;6.93;;
12467;SDS011;57850;52.922;6.256;2023-08-30T12:26:48;8.68;;;7.22;;
12467;SDS011;57850;52.922;6.256;2023-08-30T12:29:15;7.45;;;6.60;;
12467;SDS011;57850;52.922;6.256;2023-08-30T12:31:42;8.05;;;7.22;;
12467;SDS011;57850;52.922;6.256;2023-08-30T12:34:08;7.95;;;6.53;;
12467;SDS011;57850;52.922;6.256;2023-08-30T12:36:36;8.45;;;7.00;;
12467;SDS011;57850;52.922;6.256;2023-08-30T12:39:03;7.35;;;6.28;;
12467;SDS011;57850;52.922;6.256;2023-08-30T12:41:30;8.63;;;6.10;;
12467;SDS011;57850;52.922;6.256;2023-08-30T12:43:58;6.45;;;5.70;;
12467;SDS011;57850;52.922;6.256;2023-08-30T12:46:24;8.13;;;6.18;;
12467;SDS011;57850;52.922;6.256;2023-08-30T12:48:51;7.22;;;5.82;;
12467;SDS011;57850;52.922;6.256;2023-08-30T12:51:17;6.50;;;5.82;;
12467;SDS011;57850;52.922;6.256;2023-08-30T12:53:46;6.88;;;6.07;;
12467;SDS011;57850;52.922;6.256;2023-08-30T12:56:13;7.55;;;5.88;;
12467;SDS011;57850;52.922;6.256;2023-08-30T12:58:39;8.38;;;5.80;;
12467;SDS011;57850;52.922;6.256;2023-08-30T13:01:06;8.27;;;6.32;;
12467;SDS011;57850;52.922;6.256;2023-08-30T13:03:33;7.95;;;6.15;;
12467;SDS011;57850;52.922;6.256;2023-08-30T13:05:59;8.50;;;6.82;;
12467;SDS011;57850;52.922;6.256;2023-08-30T13:08:26;9.50;;;6.70;;
12467;SDS011;57850;52.922;6.256;2023-08-30T13:10:54;7.45;;;6.30;;
12467;SDS011;57850;52.922;6.256;2023-08-30T13:13:21;7.60;;;6.80;;
12467;SDS011;57850;52.922;6.256;2023-08-30T13:15:47;8.73;;;7.13;;
12467;SDS011;57850;52.922;6.256;2023-08-30T13:18:14;7.25;;;6.40;;
12467;SDS011;57850;52.922;6.256;2023-08-30T13:20:41;9.00;;;7.53;;
12467;SDS011;57850;52.922;6.256;2023-08-30T13:23:08;7.97;;;6.93;;
12467;SDS011;57850;52.922;6.256;2023-08-30T13:25:37;6.88;;;6.18;;
12467;SDS011;57850;52.922;6.256;2023-08-30T13:28:06;5.82;;;5.28;;
12467;SDS011;57850;52.922;6.256;2023-08-30T13:30:33;6.57;;;5.00;;
12467;SDS011;57850;52.922;6.256;2023-08-30T13:33:00;5.78;;;5.18;;
12467;SDS011;57850;52.922;6.256;2023-08-30T13:35:26;5.00;;;4.50;;
12467;SDS011;57850;52.922;6.256;2023-08-30T13:37:53;5.55;;;4.93;;
12467;SDS011;57850;52.922;6.256;2023-08-30T13:40:20;4.95;;;4.55;;
12467;SDS011;57850;52.922;6.256;2023-08-30T13:42:46;3.20;;;2.90;;
12467;SDS011;57850;52.922;6.256;2023-08-30T13:45:15;3.90;;;3.60;;
12467;SDS011;57850;52.922;6.256;2023-08-30T13:47:42;3.60;;;3.30;;
12467;SDS011;57850;52.922;6.256;2023-08-30T13:50:10;3.80;;;2.38;;
12467;SDS011;57850;52.922;6.256;2023-08-30T13:52:36;3.15;;;2.85;;
12467;SDS011;57850;52.922;6.256;2023-08-30T13:55:03;3.10;;;2.78;;
12467;SDS011;57850;52.922;6.256;2023-08-30T13:57:30;2.95;;;2.70;;
12467;SDS011;57850;52.922;6.256;2023-08-30T13:59:56;2.75;;;2.50;;
12467;SDS011;57850;52.922;6.256;2023-08-30T14:02:24;2.72;;;2.53;;
12467;SDS011;57850;52.922;6.256;2023-08-30T14:04:51;3.08;;;2.80;;
12467;SDS011;57850;52.922;6.256;2023-08-30T14:07:17;2.75;;;2.55;;
12467;SDS011;57850;52.922;6.256;2023-08-30T14:09:44;2.92;;;2.70;;
12467;SDS011;57850;52.922;6.256;2023-08-30T14:12:11;2.75;;;2.55;;
12467;SDS011;57850;52.922;6.256;2023-08-30T14:14:40;3.00;;;2.70;;
12467;SDS011;57850;52.922;6.256;2023-08-30T14:17:07;2.92;;;2.63;;
12467;SDS011;57850;52.922;6.256;2023-08-30T14:19:35;3.63;;;3.25;;
12467;SDS011;57850;52.922;6.256;2023-08-30T14:22:01;3.22;;;2.92;;
12467;SDS011;57850;52.922;6.256;2023-08-30T14:24:30;3.55;;;3.25;;
12467;SDS011;57850;52.922;6.256;2023-08-30T14:26:57;4.30;;;3.72;;
12467;SDS011;57850;52.922;6.256;2023-08-30T14:29:24;4.50;;;4.00;;
12467;SDS011;57850;52.922;6.256;2023-08-30T14:31:50;5.28;;;3.70;;
12467;SDS011;57850;52.922;6.256;2023-08-30T14:34:17;3.88;;;3.50;;
12467;SDS011;57850;52.922;6.256;2023-08-30T14:36:47;4.78;;;4.15;;